sensor_id;sensor_type;location;lat;lon;timestamp;P1;durP1;ratioP1;P2;durP2;ratioP2
38085;SDS011;23896;50.678;10.924;2023-05-10T00:00:53;3.33;;;2.22;;
38085;SDS011;23896;50.678;10.924;2023-05-10T00:03:19;2.33;;;2.13;;
38085;SDS011;23896;50.678;10.924;2023-05-10T00:05:45;4.43;;;2.72;;
38085;SDS011;23896;50.678;10.924;2023-05-10T00:08:11;6.28;;;2.47;;
38085;SDS011;23896;50.678;10.924;2023-05-10T00:10:37;3.03;;;2.50;;
38085;SDS011;23896;50.678;10.924;2023-05-10T00:13:04;2.58;;;2.38;;
38085;SDS011;23896;50.678;10.924;2023-05-10T00:15:30;2.10;;;2.00;;
38085;SDS011;23896;50.678;10.924;2023-05-10T00:17:56;3.88;;;2.58;;
38085;SDS011;23896;50.678;10.924;2023-05-10T00:20:22;3.08;;;2.60;;
38085;SDS011;23896;50.678;10.924;2023-05-10T00:22:48;3.63;;;2.42;;
38085;SDS011;23896;50.678;10.924;2023-05-10T00:25:15;4.38;;;2.80;;
38085;SDS011;23896;50.678;10.924;2023-05-10T00:27:41;6.93;;;2.63;;
38085;SDS011;23896;50.678;10.924;2023-05-10T00:30:07;5.78;;;2.25;;
38085;SDS011;23896;50.678;10.924;2023-05-10T00:32:33;3.33;;;2.78;;
38085;SDS011;23896;50.678;10.924;2023-05-10T00:35:00;3.38;;;2.70;;
38085;SDS011;23896;50.678;10.924;2023-05-10T00:37:26;3.90;;;2.97;;
38085;SDS011;23896;50.678;10.924;2023-05-10T00:39:52;3.28;;;2.80;;
38085;SDS011;23896;50.678;10.924;2023-05-10T00:42:18;5.53;;;2.90;;
38085;SDS011;23896;50.678;10.924;2023-05-10T00:44:45;9.57;;;2.40;;
38085;SDS011;23896;50.678;10.924;2023-05-10T00:47:11;7.10;;;2.80;;
38085;SDS011;23896;50.678;10.924;2023-05-10T00:49:37;3.35;;;3.13;;
38085;SDS011;23896;50.678;10.924;2023-05-10T00:52:04;6.93;;;2.50;;
38085;SDS011;23896;50.678;10.924;2023-05-10T00:54:30;4.25;;;2.83;;
38085;SDS011;23896;50.678;10.924;2023-05-10T00:56:56;4.60;;;2.78;;
38085;SDS011;23896;50.678;10.924;2023-05-10T00:59:23;4.97;;;2.80;;
38085;SDS011;23896;50.678;10.924;2023-05-10T01:01:50;3.47;;;2.88;;
38085;SDS011;23896;50.678;10.924;2023-05-10T01:04:16;11.35;;;2.92;;
38085;SDS011;23896;50.678;10.924;2023-05-10T01:06:45;4.93;;;2.92;;
38085;SDS011;23896;50.678;10.924;2023-05-10T01:09:11;6.13;;;2.47;;
38085;SDS011;23896;50.678;10.924;2023-05-10T01:11:38;6.40;;;2.45;;
38085;SDS011;23896;50.678;10.924;2023-05-10T01:14:05;5.30;;;2.63;;
38085;SDS011;23896;50.678;10.924;2023-05-10T01:16:32;3.22;;;2.83;;
38085;SDS011;23896;50.678;10.924;2023-05-10T01:19:00;4.10;;;2.90;;
38085;SDS011;23896;50.678;10.924;2023-05-10T01:21:32;4.75;;;2.72;;
38085;SDS011;23896;50.678;10.924;2023-05-10T01:27:02;3.25;;;2.80;;
38085;SDS011;23896;50.678;10.924;2023-05-10T01:29:35;2.83;;;2.40;;
38085;SDS011;23896;50.678;10.924;2023-05-10T01:32:10;2.97;;;2.58;;
38085;SDS011;23896;50.678;10.924;2023-05-10T01:34:47;3.42;;;2.83;;
38085;SDS011;23896;50.678;10.924;2023-05-10T01:37:21;9.10;;;3.10;;
38085;SDS011;23896;50.678;10.924;2023-05-10T01:39:55;4.60;;;2.70;;
38085;SDS011;23896;50.678;10.924;2023-05-10T01:42:29;3.70;;;2.75;;
38085;SDS011;23896;50.678;10.924;2023-05-10T01:45:02;4.82;;;2.83;;
38085;SDS011;23896;50.678;10.924;2023-05-10T01:47:37;3.25;;;2.78;;
38085;SDS011;23896;50.678;10.924;2023-05-10T01:50:04;4.55;;;3.00;;
38085;SDS011;23896;50.678;10.924;2023-05-10T01:52:37;3.47;;;3.03;;
38085;SDS011;23896;50.678;10.924;2023-05-10T01:55:04;2.83;;;2.53;;
38085;SDS011;23896;50.678;10.924;2023-05-10T01:57:32;4.32;;;2.78;;
38085;SDS011;23896;50.678;10.924;2023-05-10T02:00:00;4.50;;;2.72;;
38085;SDS011;23896;50.678;10.924;2023-05-10T02:02:27;3.35;;;2.63;;
38085;SDS011;23896;50.678;10.924;2023-05-10T02:04:55;7.90;;;3.20;;
38085;SDS011;23896;50.678;10.924;2023-05-10T02:07:21;4.32;;;2.72;;
38085;SDS011;23896;50.678;10.924;2023-05-10T02:09:49;4.70;;;3.10;;
38085;SDS011;23896;50.678;10.924;2023-05-10T02:12:15;3.72;;;3.35;;
38085;SDS011;23896;50.678;10.924;2023-05-10T02:14:42;4.80;;;3.20;;
38085;SDS011;23896;50.678;10.924;2023-05-10T02:17:08;4.53;;;3.40;;
38085;SDS011;23896;50.678;10.924;2023-05-10T02:19:37;3.63;;;3.20;;
38085;SDS011;23896;50.678;10.924;2023-05-10T02:22:04;3.80;;;3.13;;
38085;SDS011;23896;50.678;10.924;2023-05-10T02:24:30;3.83;;;3.22;;
38085;SDS011;23896;50.678;10.924;2023-05-10T02:26:58;3.90;;;3.30;;
38085;SDS011;23896;50.678;10.924;2023-05-10T02:29:25;4.47;;;3.78;;
38085;SDS011;23896;50.678;10.924;2023-05-10T02:31:52;3.70;;;3.40;;
38085;SDS011;23896;50.678;10.924;2023-05-10T02:34:21;4.15;;;3.85;;
38085;SDS011;23896;50.678;10.924;2023-05-10T02:36:47;4.25;;;3.92;;
38085;SDS011;23896;50.678;10.924;2023-05-10T02:39:14;4.60;;;3.08;;
38085;SDS011;23896;50.678;10.924;2023-05-10T02:41:41;5.80;;;3.65;;
38085;SDS011;23896;50.678;10.924;2023-05-10T02:44:07;4.38;;;3.40;;
38085;SDS011;23896;50.678;10.924;2023-05-10T02:46:35;5.05;;;3.30;;
38085;SDS011;23896;50.678;10.924;2023-05-10T02:49:02;5.28;;;3.50;;
38085;SDS011;23896;50.678;10.924;2023-05-10T02:51:30;6.00;;;3.55;;
38085;SDS011;23896;50.678;10.924;2023-05-10T02:53:57;5.07;;;3.72;;
38085;SDS011;23896;50.678;10.924;2023-05-10T02:56:25;4.47;;;3.67;;
38085;SDS011;23896;50.678;10.924;2023-05-10T02:58:53;4.28;;;3.53;;
38085;SDS011;23896;50.678;10.924;2023-05-10T03:01:19;3.70;;;3.40;;
38085;SDS011;23896;50.678;10.924;2023-05-10T03:03:45;5.53;;;3.35;;
38085;SDS011;23896;50.678;10.924;2023-05-10T03:06:11;3.95;;;3.63;;
38085;SDS011;23896;50.678;10.924;2023-05-10T03:08:40;3.70;;;3.40;;
38085;SDS011;23896;50.678;10.924;2023-05-10T03:11:28;3.40;;;3.10;;
38085;SDS011;23896;50.678;10.924;2023-05-10T03:13:56;4.03;;;3.72;;
38085;SDS011;23896;50.678;10.924;2023-05-10T03:16:29;3.95;;;3.33;;
38085;SDS011;23896;50.678;10.924;2023-05-10T03:19:01;3.72;;;3.35;;
38085;SDS011;23896;50.678;10.924;2023-05-10T03:21:32;4.43;;;3.25;;
38085;SDS011;23896;50.678;10.924;2023-05-10T03:24:04;3.78;;;3.30;;
38085;SDS011;23896;50.678;10.924;2023-05-10T03:26:31;3.90;;;3.60;;
38085;SDS011;23896;50.678;10.924;2023-05-10T03:28:57;4.25;;;3.95;;
38085;SDS011;23896;50.678;10.924;2023-05-10T03:31:24;3.25;;;2.95;;
38085;SDS011;23896;50.678;10.924;2023-05-10T03:33:51;3.08;;;2.88;;
38085;SDS011;23896;50.678;10.924;2023-05-10T03:36:18;3.30;;;2.92;;
38085;SDS011;23896;50.678;10.924;2023-05-10T03:38:47;3.88;;;3.22;;
38085;SDS011;23896;50.678;10.924;2023-05-10T03:41:13;3.15;;;2.95;;
38085;SDS011;23896;50.678;10.924;2023-05-10T03:43:40;3.25;;;3.05;;
38085;SDS011;23896;50.678;10.924;2023-05-10T03:46:06;3.10;;;2.90;;
38085;SDS011;23896;50.678;10.924;2023-05-10T03:48:32;2.58;;;2.38;;
38085;SDS011;23896;50.678;10.924;2023-05-10T03:50:59;3.58;;;3.28;;
38085;SDS011;23896;50.678;10.924;2023-05-10T03:53:25;3.03;;;2.83;;
38085;SDS011;23896;50.678;10.924;2023-05-10T03:55:52;6.97;;;2.92;;
38085;SDS011;23896;50.678;10.924;2023-05-10T03:58:18;4.00;;;3.22;;
38085;SDS011;23896;50.678;10.924;2023-05-10T04:00:44;3.38;;;2.92;;
38085;SDS011;23896;50.678;10.924;2023-05-10T04:03:11;3.20;;;2.88;;
38085;SDS011;23896;50.678;10.924;2023-05-10T04:05:37;3.63;;;3.33;;
38085;SDS011;23896;50.678;10.924;2023-05-10T04:08:04;4.75;;;3.10;;
38085;SDS011;23896;50.678;10.924;2023-05-10T04:10:30;4.47;;;3.30;;
38085;SDS011;23896;50.678;10.924;2023-05-10T04:12:56;3.80;;;3.53;;
38085;SDS011;23896;50.678;10.924;2023-05-10T04:15:22;5.90;;;3.30;;
38085;SDS011;23896;50.678;10.924;2023-05-10T04:17:48;3.42;;;3.03;;
38085;SDS011;23896;50.678;10.924;2023-05-10T04:20:15;4.07;;;3.78;;
38085;SDS011;23896;50.678;10.924;2023-05-10T04:22:41;3.97;;;3.58;;
38085;SDS011;23896;50.678;10.924;2023-05-10T04:25:08;3.42;;;3.13;;
38085;SDS011;23896;50.678;10.924;2023-05-10T04:27:34;3.67;;;3.38;;
38085;SDS011;23896;50.678;10.924;2023-05-10T04:30:01;2.15;;;2.05;;
38085;SDS011;23896;50.678;10.924;2023-05-10T04:32:27;2.80;;;2.47;;
38085;SDS011;23896;50.678;10.924;2023-05-10T04:34:53;3.28;;;3.05;;
38085;SDS011;23896;50.678;10.924;2023-05-10T04:37:22;3.47;;;3.25;;
38085;SDS011;23896;50.678;10.924;2023-05-10T04:39:48;3.10;;;2.85;;
38085;SDS011;23896;50.678;10.924;2023-05-10T04:42:15;2.38;;;2.17;;
38085;SDS011;23896;50.678;10.924;2023-05-10T04:44:41;3.35;;;2.35;;
38085;SDS011;23896;50.678;10.924;2023-05-10T04:47:09;2.38;;;2.28;;
38085;SDS011;23896;50.678;10.924;2023-05-10T04:49:40;2.95;;;2.70;;
38085;SDS011;23896;50.678;10.924;2023-05-10T04:52:06;3.60;;;3.30;;
38085;SDS011;23896;50.678;10.924;2023-05-10T04:54:32;2.22;;;2.13;;
38085;SDS011;23896;50.678;10.924;2023-05-10T04:56:59;2.25;;;2.13;;
38085;SDS011;23896;50.678;10.924;2023-05-10T04:59:25;2.80;;;2.60;;
38085;SDS011;23896;50.678;10.924;2023-05-10T05:01:51;3.03;;;2.55;;
38085;SDS011;23896;50.678;10.924;2023-05-10T05:04:17;2.67;;;2.47;;
38085;SDS011;23896;50.678;10.924;2023-05-10T05:06:43;2.50;;;2.30;;
38085;SDS011;23896;50.678;10.924;2023-05-10T05:09:10;2.30;;;2.20;;
38085;SDS011;23896;50.678;10.924;2023-05-10T05:11:39;2.25;;;2.15;;
38085;SDS011;23896;50.678;10.924;2023-05-10T05:14:05;2.35;;;2.05;;
38085;SDS011;23896;50.678;10.924;2023-05-10T05:16:31;2.00;;;1.80;;
38085;SDS011;23896;50.678;10.924;2023-05-10T05:18:57;2.40;;;1.88;;
38085;SDS011;23896;50.678;10.924;2023-05-10T05:21:24;1.90;;;1.80;;
38085;SDS011;23896;50.678;10.924;2023-05-10T05:23:54;1.45;;;1.35;;
38085;SDS011;23896;50.678;10.924;2023-05-10T05:26:20;1.50;;;1.40;;
38085;SDS011;23896;50.678;10.924;2023-05-10T05:28:47;1.80;;;1.70;;
38085;SDS011;23896;50.678;10.924;2023-05-10T05:31:14;1.65;;;1.55;;
38085;SDS011;23896;50.678;10.924;2023-05-10T05:33:40;1.48;;;1.38;;
38085;SDS011;23896;50.678;10.924;2023-05-10T05:36:06;1.55;;;1.17;;
38085;SDS011;23896;50.678;10.924;2023-05-10T05:38:35;1.50;;;1.40;;
38085;SDS011;23896;50.678;10.924;2023-05-10T05:41:01;1.33;;;1.23;;
38085;SDS011;23896;50.678;10.924;2023-05-10T05:43:30;0.95;;;0.93;;
38085;SDS011;23896;50.678;10.924;2023-05-10T05:45:59;1.58;;;1.35;;
38085;SDS011;23896;50.678;10.924;2023-05-10T05:48:26;1.20;;;1.10;;
38085;SDS011;23896;50.678;10.924;2023-05-10T05:50:56;1.45;;;1.35;;
38085;SDS011;23896;50.678;10.924;2023-05-10T05:53:23;1.00;;;1.00;;
38085;SDS011;23896;50.678;10.924;2023-05-10T05:55:53;1.20;;;1.20;;
38085;SDS011;23896;50.678;10.924;2023-05-10T05:58:20;1.98;;;1.20;;
38085;SDS011;23896;50.678;10.924;2023-05-10T06:00:46;1.10;;;1.10;;
38085;SDS011;23896;50.678;10.924;2023-05-10T06:03:12;0.80;;;0.80;;
38085;SDS011;23896;50.678;10.924;2023-05-10T06:05:39;4.15;;;0.90;;
38085;SDS011;23896;50.678;10.924;2023-05-10T06:08:05;2.67;;;1.20;;
38085;SDS011;23896;50.678;10.924;2023-05-10T06:10:31;2.30;;;1.05;;
38085;SDS011;23896;50.678;10.924;2023-05-10T06:12:58;1.05;;;0.77;;
38085;SDS011;23896;50.678;10.924;2023-05-10T06:15:24;1.10;;;0.95;;
38085;SDS011;23896;50.678;10.924;2023-05-10T06:17:51;1.25;;;0.90;;
38085;SDS011;23896;50.678;10.924;2023-05-10T06:20:17;0.70;;;0.70;;
38085;SDS011;23896;50.678;10.924;2023-05-10T06:22:49;1.83;;;0.85;;
38085;SDS011;23896;50.678;10.924;2023-05-10T06:25:16;2.97;;;0.90;;
38085;SDS011;23896;50.678;10.924;2023-05-10T06:27:43;0.88;;;0.88;;
38085;SDS011;23896;50.678;10.924;2023-05-10T06:30:12;0.80;;;0.80;;
38085;SDS011;23896;50.678;10.924;2023-05-10T06:32:43;0.93;;;0.93;;
38085;SDS011;23896;50.678;10.924;2023-05-10T06:35:10;0.88;;;0.88;;
38085;SDS011;23896;50.678;10.924;2023-05-10T06:37:39;0.65;;;0.65;;
38085;SDS011;23896;50.678;10.924;2023-05-10T06:40:05;2.28;;;0.68;;
38085;SDS011;23896;50.678;10.924;2023-05-10T06:42:32;0.98;;;0.70;;
38085;SDS011;23896;50.678;10.924;2023-05-10T06:44:59;0.80;;;0.80;;
38085;SDS011;23896;50.678;10.924;2023-05-10T06:47:25;0.90;;;0.90;;
38085;SDS011;23896;50.678;10.924;2023-05-10T06:49:51;0.60;;;0.60;;
38085;SDS011;23896;50.678;10.924;2023-05-10T06:52:17;1.10;;;0.70;;
38085;SDS011;23896;50.678;10.924;2023-05-10T06:54:44;0.70;;;0.70;;
38085;SDS011;23896;50.678;10.924;2023-05-10T06:57:10;0.82;;;0.82;;
38085;SDS011;23896;50.678;10.924;2023-05-10T06:59:40;0.60;;;0.60;;
38085;SDS011;23896;50.678;10.924;2023-05-10T07:02:07;1.17;;;0.70;;
38085;SDS011;23896;50.678;10.924;2023-05-10T07:04:33;0.63;;;0.63;;
38085;SDS011;23896;50.678;10.924;2023-05-10T07:06:59;0.55;;;0.55;;
38085;SDS011;23896;50.678;10.924;2023-05-10T07:09:26;0.63;;;0.60;;
38085;SDS011;23896;50.678;10.924;2023-05-10T07:11:52;0.60;;;0.60;;
38085;SDS011;23896;50.678;10.924;2023-05-10T07:14:18;0.70;;;0.70;;
38085;SDS011;23896;50.678;10.924;2023-05-10T07:16:44;1.75;;;0.63;;
38085;SDS011;23896;50.678;10.924;2023-05-10T07:19:11;1.85;;;0.55;;
38085;SDS011;23896;50.678;10.924;2023-05-10T07:21:37;0.50;;;0.50;;
38085;SDS011;23896;50.678;10.924;2023-05-10T07:24:05;0.60;;;0.60;;
38085;SDS011;23896;50.678;10.924;2023-05-10T07:26:31;0.50;;;0.50;;
38085;SDS011;23896;50.678;10.924;2023-05-10T07:28:58;0.88;;;0.60;;
38085;SDS011;23896;50.678;10.924;2023-05-10T07:31:24;0.57;;;0.50;;
38085;SDS011;23896;50.678;10.924;2023-05-10T07:33:53;0.60;;;0.60;;
38085;SDS011;23896;50.678;10.924;2023-05-10T07:36:21;0.60;;;0.50;;
38085;SDS011;23896;50.678;10.924;2023-05-10T07:38:50;3.20;;;0.60;;
38085;SDS011;23896;50.678;10.924;2023-05-10T07:41:19;0.50;;;0.50;;
38085;SDS011;23896;50.678;10.924;2023-05-10T07:43:47;1.30;;;0.60;;
38085;SDS011;23896;50.678;10.924;2023-05-10T07:46:22;0.40;;;0.40;;
38085;SDS011;23896;50.678;10.924;2023-05-10T07:48:59;0.57;;;0.57;;
38085;SDS011;23896;50.678;10.924;2023-05-10T07:53:54;1.60;;;0.60;;
38085;SDS011;23896;50.678;10.924;2023-05-10T07:56:22;0.60;;;0.60;;
38085;SDS011;23896;50.678;10.924;2023-05-10T07:58:50;0.50;;;0.50;;
38085;SDS011;23896;50.678;10.924;2023-05-10T08:01:17;0.50;;;0.50;;
38085;SDS011;23896;50.678;10.924;2023-05-10T08:03:43;0.57;;;0.57;;
38085;SDS011;23896;50.678;10.924;2023-05-10T08:06:09;0.50;;;0.50;;
38085;SDS011;23896;50.678;10.924;2023-05-10T08:08:36;0.70;;;0.70;;
38085;SDS011;23896;50.678;10.924;2023-05-10T08:11:03;0.70;;;0.70;;
38085;SDS011;23896;50.678;10.924;2023-05-10T08:13:29;0.50;;;0.50;;
38085;SDS011;23896;50.678;10.924;2023-05-10T08:15:56;0.60;;;0.60;;
38085;SDS011;23896;50.678;10.924;2023-05-10T08:18:22;3.13;;;0.70;;
38085;SDS011;23896;50.678;10.924;2023-05-10T08:20:49;0.65;;;0.60;;
38085;SDS011;23896;50.678;10.924;2023-05-10T08:23:15;0.50;;;0.50;;
38085;SDS011;23896;50.678;10.924;2023-05-10T08:25:41;0.60;;;0.60;;
38085;SDS011;23896;50.678;10.924;2023-05-10T08:28:07;1.60;;;0.55;;
38085;SDS011;23896;50.678;10.924;2023-05-10T08:30:33;0.50;;;0.50;;
38085;SDS011;23896;50.678;10.924;2023-05-10T08:32:59;0.50;;;0.50;;
38085;SDS011;23896;50.678;10.924;2023-05-10T08:35:28;0.93;;;0.52;;
38085;SDS011;23896;50.678;10.924;2023-05-10T08:37:55;0.40;;;0.40;;
38085;SDS011;23896;50.678;10.924;2023-05-10T08:40:21;0.80;;;0.80;;
38085;SDS011;23896;50.678;10.924;2023-05-10T08:42:51;0.70;;;0.70;;
38085;SDS011;23896;50.678;10.924;2023-05-10T08:45:21;1.17;;;0.63;;
38085;SDS011;23896;50.678;10.924;2023-05-10T08:47:48;0.68;;;0.68;;
38085;SDS011;23896;50.678;10.924;2023-05-10T08:50:17;0.60;;;0.60;;
38085;SDS011;23896;50.678;10.924;2023-05-10T08:52:43;0.50;;;0.50;;
38085;SDS011;23896;50.678;10.924;2023-05-10T08:55:11;1.35;;;0.93;;
38085;SDS011;23896;50.678;10.924;2023-05-10T08:57:37;0.50;;;0.50;;
38085;SDS011;23896;50.678;10.924;2023-05-10T09:00:09;0.50;;;0.50;;
38085;SDS011;23896;50.678;10.924;2023-05-10T09:02:36;2.60;;;0.60;;
38085;SDS011;23896;50.678;10.924;2023-05-10T09:05:03;0.60;;;0.60;;
38085;SDS011;23896;50.678;10.924;2023-05-10T09:07:29;0.50;;;0.50;;
38085;SDS011;23896;50.678;10.924;2023-05-10T09:09:56;2.47;;;0.50;;
38085;SDS011;23896;50.678;10.924;2023-05-10T09:12:23;2.05;;;0.50;;
38085;SDS011;23896;50.678;10.924;2023-05-10T09:14:49;0.50;;;0.50;;
38085;SDS011;23896;50.678;10.924;2023-05-10T09:17:17;0.60;;;0.60;;
38085;SDS011;23896;50.678;10.924;2023-05-10T09:19:44;0.55;;;0.55;;
38085;SDS011;23896;50.678;10.924;2023-05-10T09:22:11;0.55;;;0.55;;
38085;SDS011;23896;50.678;10.924;2023-05-10T09:24:41;0.50;;;0.50;;
38085;SDS011;23896;50.678;10.924;2023-05-10T09:27:10;0.50;;;0.50;;
38085;SDS011;23896;50.678;10.924;2023-05-10T09:29:41;0.40;;;0.40;;
38085;SDS011;23896;50.678;10.924;2023-05-10T09:32:07;0.80;;;0.60;;
38085;SDS011;23896;50.678;10.924;2023-05-10T09:34:33;0.50;;;0.50;;
38085;SDS011;23896;50.678;10.924;2023-05-10T09:37:01;0.47;;;0.47;;
38085;SDS011;23896;50.678;10.924;2023-05-10T09:39:29;0.50;;;0.50;;
38085;SDS011;23896;50.678;10.924;2023-05-10T09:41:57;0.60;;;0.60;;
38085;SDS011;23896;50.678;10.924;2023-05-10T09:44:27;0.47;;;0.47;;
38085;SDS011;23896;50.678;10.924;2023-05-10T09:46:53;0.50;;;0.50;;
38085;SDS011;23896;50.678;10.924;2023-05-10T09:49:22;0.50;;;0.50;;
38085;SDS011;23896;50.678;10.924;2023-05-10T09:51:59;1.02;;;0.47;;
38085;SDS011;23896;50.678;10.924;2023-05-10T09:54:26;1.58;;;0.50;;
38085;SDS011;23896;50.678;10.924;2023-05-10T09:56:52;0.52;;;0.52;;
38085;SDS011;23896;50.678;10.924;2023-05-10T09:59:18;0.50;;;0.50;;
38085;SDS011;23896;50.678;10.924;2023-05-10T10:01:49;0.47;;;0.47;;
38085;SDS011;23896;50.678;10.924;2023-05-10T10:04:16;1.08;;;0.50;;
38085;SDS011;23896;50.678;10.924;2023-05-10T10:06:42;0.63;;;0.63;;
38085;SDS011;23896;50.678;10.924;2023-05-10T10:09:11;1.63;;;0.68;;
38085;SDS011;23896;50.678;10.924;2023-05-10T10:11:39;0.50;;;0.50;;
38085;SDS011;23896;50.678;10.924;2023-05-10T10:14:06;0.82;;;0.60;;
38085;SDS011;23896;50.678;10.924;2023-05-10T10:16:32;0.50;;;0.50;;
38085;SDS011;23896;50.678;10.924;2023-05-10T10:18:59;0.50;;;0.50;;
38085;SDS011;23896;50.678;10.924;2023-05-10T10:21:25;0.60;;;0.60;;
38085;SDS011;23896;50.678;10.924;2023-05-10T10:23:54;1.60;;;0.60;;
38085;SDS011;23896;50.678;10.924;2023-05-10T10:26:22;0.60;;;0.60;;
38085;SDS011;23896;50.678;10.924;2023-05-10T10:31:41;0.60;;;0.60;;
38085;SDS011;23896;50.678;10.924;2023-05-10T10:34:15;0.88;;;0.70;;
38085;SDS011;23896;50.678;10.924;2023-05-10T10:36:46;0.68;;;0.68;;
38085;SDS011;23896;50.678;10.924;2023-05-10T10:39:13;1.77;;;0.60;;
38085;SDS011;23896;50.678;10.924;2023-05-10T10:41:48;0.70;;;0.70;;
38085;SDS011;23896;50.678;10.924;2023-05-10T10:44:30;0.70;;;0.70;;
38085;SDS011;23896;50.678;10.924;2023-05-10T10:47:00;1.05;;;0.80;;
38085;SDS011;23896;50.678;10.924;2023-05-10T10:49:27;0.82;;;0.82;;
38085;SDS011;23896;50.678;10.924;2023-05-10T10:54:46;0.90;;;0.68;;
38085;SDS011;23896;50.678;10.924;2023-05-10T10:57:13;1.63;;;0.70;;
38085;SDS011;23896;50.678;10.924;2023-05-10T10:59:41;0.50;;;0.50;;
38085;SDS011;23896;50.678;10.924;2023-05-10T11:02:09;1.02;;;0.70;;
38085;SDS011;23896;50.678;10.924;2023-05-10T11:04:41;1.23;;;0.70;;
38085;SDS011;23896;50.678;10.924;2023-05-10T11:07:15;1.70;;;0.60;;
38085;SDS011;23896;50.678;10.924;2023-05-10T11:09:42;0.80;;;0.68;;
38085;SDS011;23896;50.678;10.924;2023-05-10T11:12:08;0.60;;;0.60;;
38085;SDS011;23896;50.678;10.924;2023-05-10T11:14:35;0.60;;;0.60;;
38085;SDS011;23896;50.678;10.924;2023-05-10T11:17:16;0.60;;;0.60;;
38085;SDS011;23896;50.678;10.924;2023-05-10T11:22:26;2.45;;;0.50;;
38085;SDS011;23896;50.678;10.924;2023-05-10T11:24:56;3.42;;;0.70;;
38085;SDS011;23896;50.678;10.924;2023-05-10T11:27:23;0.50;;;0.50;;
38085;SDS011;23896;50.678;10.924;2023-05-10T11:29:51;0.60;;;0.60;;
38085;SDS011;23896;50.678;10.924;2023-05-10T11:32:21;2.15;;;0.73;;
38085;SDS011;23896;50.678;10.924;2023-05-10T11:34:47;1.45;;;0.63;;
38085;SDS011;23896;50.678;10.924;2023-05-10T11:37:14;1.38;;;0.70;;
38085;SDS011;23896;50.678;10.924;2023-05-10T11:39:45;0.70;;;0.70;;
38085;SDS011;23896;50.678;10.924;2023-05-10T11:42:12;1.83;;;0.60;;
38085;SDS011;23896;50.678;10.924;2023-05-10T11:44:39;0.70;;;0.70;;
38085;SDS011;23896;50.678;10.924;2023-05-10T11:47:06;0.98;;;0.80;;
38085;SDS011;23896;50.678;10.924;2023-05-10T11:49:32;2.05;;;0.80;;
38085;SDS011;23896;50.678;10.924;2023-05-10T11:52:05;0.80;;;0.65;;
38085;SDS011;23896;50.678;10.924;2023-05-10T11:54:31;0.80;;;0.80;;
38085;SDS011;23896;50.678;10.924;2023-05-10T11:56:59;1.35;;;0.60;;
38085;SDS011;23896;50.678;10.924;2023-05-10T11:59:25;0.93;;;0.80;;
38085;SDS011;23896;50.678;10.924;2023-05-10T12:01:52;0.90;;;0.80;;
38085;SDS011;23896;50.678;10.924;2023-05-10T12:04:22;0.80;;;0.80;;
38085;SDS011;23896;50.678;10.924;2023-05-10T12:06:49;1.60;;;1.33;;
38085;SDS011;23896;50.678;10.924;2023-05-10T12:09:16;1.27;;;0.80;;
38085;SDS011;23896;50.678;10.924;2023-05-10T12:11:42;0.88;;;0.88;;
38085;SDS011;23896;50.678;10.924;2023-05-10T12:14:09;1.33;;;0.77;;
38085;SDS011;23896;50.678;10.924;2023-05-10T12:16:39;1.05;;;0.90;;
38085;SDS011;23896;50.678;10.924;2023-05-10T12:19:06;1.05;;;0.82;;
38085;SDS011;23896;50.678;10.924;2023-05-10T12:21:32;0.85;;;0.85;;
38085;SDS011;23896;50.678;10.924;2023-05-10T12:23:59;1.02;;;0.90;;
38085;SDS011;23896;50.678;10.924;2023-05-10T12:26:29;0.80;;;0.80;;
38085;SDS011;23896;50.678;10.924;2023-05-10T12:29:11;2.20;;;0.98;;
38085;SDS011;23896;50.678;10.924;2023-05-10T12:34:22;0.80;;;0.80;;
38085;SDS011;23896;50.678;10.924;2023-05-10T12:36:51;1.02;;;0.80;;
38085;SDS011;23896;50.678;10.924;2023-05-10T12:39:20;1.23;;;0.93;;
38085;SDS011;23896;50.678;10.924;2023-05-10T12:41:47;0.90;;;0.90;;
38085;SDS011;23896;50.678;10.924;2023-05-10T12:44:14;1.50;;;1.10;;
38085;SDS011;23896;50.678;10.924;2023-05-10T12:46:40;0.80;;;0.80;;
38085;SDS011;23896;50.678;10.924;2023-05-10T12:49:06;1.10;;;0.95;;
38085;SDS011;23896;50.678;10.924;2023-05-10T12:51:33;1.88;;;0.88;;
38085;SDS011;23896;50.678;10.924;2023-05-10T12:53:59;1.45;;;1.35;;
38085;SDS011;23896;50.678;10.924;2023-05-10T12:56:28;0.90;;;0.90;;
38085;SDS011;23896;50.678;10.924;2023-05-10T12:58:55;2.33;;;1.20;;
38085;SDS011;23896;50.678;10.924;2023-05-10T13:01:21;2.38;;;0.90;;
38085;SDS011;23896;50.678;10.924;2023-05-10T13:03:47;1.45;;;1.10;;
38085;SDS011;23896;50.678;10.924;2023-05-10T13:06:13;2.05;;;1.60;;
38085;SDS011;23896;50.678;10.924;2023-05-10T13:08:39;1.25;;;1.15;;
38085;SDS011;23896;50.678;10.924;2023-05-10T13:11:06;3.42;;;3.10;;
38085;SDS011;23896;50.678;10.924;2023-05-10T13:13:32;0.93;;;0.93;;
38085;SDS011;23896;50.678;10.924;2023-05-10T13:15:58;4.65;;;1.30;;
38085;SDS011;23896;50.678;10.924;2023-05-10T13:18:25;2.83;;;1.40;;
38085;SDS011;23896;50.678;10.924;2023-05-10T13:20:51;3.25;;;1.85;;
38085;SDS011;23896;50.678;10.924;2023-05-10T13:23:17;5.00;;;1.35;;
38085;SDS011;23896;50.678;10.924;2023-05-10T13:25:44;2.20;;;1.75;;
38085;SDS011;23896;50.678;10.924;2023-05-10T13:28:10;3.85;;;1.70;;
38085;SDS011;23896;50.678;10.924;2023-05-10T13:30:36;2.13;;;1.35;;
38085;SDS011;23896;50.678;10.924;2023-05-10T13:33:02;2.35;;;1.42;;
38085;SDS011;23896;50.678;10.924;2023-05-10T13:35:28;2.88;;;2.38;;
38085;SDS011;23896;50.678;10.924;2023-05-10T13:37:55;1.45;;;1.30;;
38085;SDS011;23896;50.678;10.924;2023-05-10T13:40:23;2.25;;;1.35;;
38085;SDS011;23896;50.678;10.924;2023-05-10T13:42:49;6.90;;;1.75;;
38085;SDS011;23896;50.678;10.924;2023-05-10T13:45:15;4.38;;;1.90;;
38085;SDS011;23896;50.678;10.924;2023-05-10T13:47:41;7.85;;;2.08;;
38085;SDS011;23896;50.678;10.924;2023-05-10T13:50:07;10.60;;;2.78;;
38085;SDS011;23896;50.678;10.924;2023-05-10T13:52:33;12.38;;;4.95;;
38085;SDS011;23896;50.678;10.924;2023-05-10T13:55:00;5.20;;;3.00;;
38085;SDS011;23896;50.678;10.924;2023-05-10T13:57:26;7.13;;;2.80;;
38085;SDS011;23896;50.678;10.924;2023-05-10T13:59:53;7.97;;;2.85;;
38085;SDS011;23896;50.678;10.924;2023-05-10T14:02:20;2.78;;;1.75;;
38085;SDS011;23896;50.678;10.924;2023-05-10T14:04:46;5.75;;;3.05;;
38085;SDS011;23896;50.678;10.924;2023-05-10T14:07:13;2.80;;;2.17;;
38085;SDS011;23896;50.678;10.924;2023-05-10T14:09:43;2.20;;;1.70;;
38085;SDS011;23896;50.678;10.924;2023-05-10T14:12:09;2.10;;;1.90;;
38085;SDS011;23896;50.678;10.924;2023-05-10T14:14:35;5.57;;;3.17;;
38085;SDS011;23896;50.678;10.924;2023-05-10T14:17:01;3.67;;;3.25;;
38085;SDS011;23896;50.678;10.924;2023-05-10T14:19:27;4.80;;;3.38;;
38085;SDS011;23896;50.678;10.924;2023-05-10T14:21:57;3.78;;;3.42;;
38085;SDS011;23896;50.678;10.924;2023-05-10T14:24:24;4.68;;;3.40;;
38085;SDS011;23896;50.678;10.924;2023-05-10T14:26:50;3.22;;;2.85;;
38085;SDS011;23896;50.678;10.924;2023-05-10T14:29:18;2.95;;;2.28;;
38085;SDS011;23896;50.678;10.924;2023-05-10T14:31:45;2.30;;;2.10;;
38085;SDS011;23896;50.678;10.924;2023-05-10T14:34:11;4.07;;;3.65;;
38085;SDS011;23896;50.678;10.924;2023-05-10T14:36:37;3.15;;;2.15;;
38085;SDS011;23896;50.678;10.924;2023-05-10T14:39:04;3.15;;;2.83;;
38085;SDS011;23896;50.678;10.924;2023-05-10T14:41:31;6.45;;;2.25;;
38085;SDS011;23896;50.678;10.924;2023-05-10T14:43:58;12.85;;;7.53;;
38085;SDS011;23896;50.678;10.924;2023-05-10T14:46:26;42.22;;;22.42;;
38085;SDS011;23896;50.678;10.924;2023-05-10T14:48:52;31.75;;;18.10;;
38085;SDS011;23896;50.678;10.924;2023-05-10T14:51:25;3.95;;;3.50;;